Bookmark and Share
Track history (hours):
 

Baltica

Last reported at 2014-Apr-20 05:32 UTC. Time now 2014-Apr-21 10:17 UTC.
Position N 60°13' E 025°12'.

Length 157 m; draft 7 m.

Type: Ship (hazmat cat A). MMSI: 215013000.

NotesDate/timePositionNaut miles runAvg speedWind from/ knotsBaromVisibWave heightAir tempDewpointWater temp
2014-Apr-20 05:32N 60°13' E 025°12'1212.1
2014-Apr-20 04:33N 60°01' E 025°07'1312.0
2014-Apr-20 03:29N 59°53' E 024°48'1112.2
2014-Apr-20 02:33N 59°45' E 024°32'1712.8
2014-Apr-20 01:16N 59°40' E 024°00'912.8
2014-Apr-20 00:33N 59°38' E 023°43'1313.1
2014-Apr-19 23:33N 59°34' E 023°18'29012.6
2014-Apr-19 00:33N 55°14' E 019°18'1313.4
2014-Apr-18 23:33N 55°01' E 019°11'1413.7
2014-Apr-18 22:33N 54°49' E 019°03'1413.9
2014-Apr-18 21:34N 54°36' E 018°54'1111.1
2014-Apr-18 20:34N 54°32' E 018°36'3 2.6
2014-Apr-18 19:32N 54°32' E 018°32'0 0.0
2014-Apr-18 18:32N 54°32' E 018°32'0 0.0
2014-Apr-18 17:32N 54°32' E 018°32'0 0.0
2014-Apr-18 16:32N 54°32' E 018°32'0 0.0
2014-Apr-18 15:32N 54°32' E 018°32'0 0.0
2014-Apr-18 14:32N 54°32' E 018°32'0 0.0
2014-Apr-18 13:32N 54°32' E 018°32'0 0.0
2014-Apr-18 12:32N 54°32' E 018°32'0 0.0
2014-Apr-18 11:32N 54°32' E 018°32'0 0.0
2014-Apr-18 10:32N 54°32' E 018°32'0 0.0
2014-Apr-18 09:32N 54°32' E 018°32'0 0.0
2014-Apr-18 08:32N 54°32' E 018°32'0 0.0
2014-Apr-18 07:32N 54°32' E 018°32'0 0.0
2014-Apr-18 06:32N 54°32' E 018°32'0 0.0
2014-Apr-18 05:32N 54°32' E 018°32'0 0.3
2014-Apr-18 04:33N 54°32' E 018°32'9 9.1
2014-Apr-18 03:34N 54°32' E 018°48'1313.0
2014-Apr-18 02:33N 54°44' E 018°58'1010.4
2014-Apr-18 01:33N 54°54' E 019°04'1110.9
2014-Apr-18 00:33N 55°04' E 019°10'1111.1
2014-Apr-17 23:33N 55°15' E 019°16'1310.9
2014-Apr-17 22:24N 55°27' E 019°22'27712.1
2014-Apr-16 23:33N 59°36' E 023°09'1615.8
2014-Apr-16 22:33N 59°41' E 023°39'1815.8
2014-Apr-16 21:26N 59°45' E 024°13'1415.9
2014-Apr-16 20:33N 59°49' E 024°39'1514.8
2014-Apr-16 19:33N 59°58' E 025°03'9 0.2
2014-Apr-15 06:34N 60°06' E 025°11'4615.5
2014-Apr-15 03:34N 59°39' E 023°56'1716.9
2014-Apr-15 02:34N 59°33' E 023°24'29116.2
2014-Apr-14 08:33N 55°14' E 019°18'1616.4
2014-Apr-14 07:34N 54°58' E 019°10'1616.4
2014-Apr-14 06:33N 54°43' E 018°59'1515.0
2014-Apr-14 05:33N 54°32' E 018°43'7 0.9
2014-Apr-13 22:32N 54°32' E 018°31'2 2.0
2014-Apr-13 21:34N 54°32' E 018°35'1313.4
2014-Apr-13 20:34N 54°38' E 018°55'1717.2
2014-Apr-13 19:33N 54°55' E 019°05'1716.9
2014-Apr-13 18:33N 55°11' E 019°14'29016.0
2014-Apr-13 00:29N 59°34' E 022°59'1616.9
2014-Apr-12 23:33N 59°39' E 023°28'2017.1
2014-Apr-12 22:23N 59°44' E 024°06'1517.2
2014-Apr-12 21:30N 59°49' E 024°35'30 3.0
2014-Apr-12 11:24N 60°13' E 025°12'0 0.0
2014-Apr-12 10:24N 60°13' E 025°12'0 0.0
2014-Apr-12 09:12N 60°13' E 025°12'0 0.0
2014-Apr-12 07:18N 60°13' E 025°12'0 0.0
2014-Apr-12 04:18N 60°13' E 025°12'0 0.1
2014-Apr-12 03:32N 60°13' E 025°12'2512.7
2014-Apr-12 01:33N 59°52' E 024°45'1515.1
2014-Apr-12 00:33N 59°43' E 024°21'1716.2
2014-Apr-11 23:32N 59°38' E 023°49'1616.4
2014-Apr-11 22:33N 59°33' E 023°19'28115.6
2014-Apr-11 04:29N 55°26' E 019°08'1415.3
2014-Apr-11 03:33N 55°13' E 019°01'1716.6
2014-Apr-11 02:33N 54°56' E 018°60'1716.7
2014-Apr-11 01:33N 54°40' E 018°57'1413.7
2014-Apr-11 00:33N 54°32' E 018°38'4 3.9
2014-Apr-10 23:33N 54°32' E 018°31'0 0.0
2014-Apr-10 22:33N 54°32' E 018°31'0 0.0
2014-Apr-10 21:33N 54°32' E 018°31'0 0.0
2014-Apr-10 20:33N 54°32' E 018°31'0 0.0
2014-Apr-10 19:34N 54°32' E 018°31'0 0.0
2014-Apr-10 18:34N 54°32' E 018°31'0 0.0
2014-Apr-10 17:33N 54°32' E 018°31'0 0.0
2014-Apr-10 16:33N 54°32' E 018°31'0 0.3
2014-Apr-10 15:33N 54°32' E 018°32'8 8.4
2014-Apr-10 14:33N 54°32' E 018°46'1817.5
2014-Apr-10 13:33N 54°48' E 018°60'1818.0
2014-Apr-10 12:34N 55°06' E 019°04'1917.9
2014-Apr-10 11:29N 55°25' E 019°00'  

Dump ship's entire track history

sailing weather and tide predictions

Baltica — 9HA2607 — position and weather